Time;durP1;ratioP1;P1;durP2;ratioP2;P2;SDS_P1;SDS_P2;PMS_P1;PMS_P2;Temp;Humidity;BMP_temperature;BMP_pressure;BME280_temperature;BME280_humidity;BME280_pressure;Samples;Min_cycle;Max_cycle;Signal;HPM_P1;HPM_P2
2023/03/21 00:02:02;;;;;;;9.98;5.57;;;14.70;96.20;;;;;;5031963;28;20509;-72
2023/03/21 00:04:27;;;;;;;9.48;5.53;;;14.70;96.30;;;;;;5032095;28;20026;-72
2023/03/21 00:06:54;;;;;;;14.35;6.40;;;14.70;96.30;;;;;;5030859;28;20033;-72
2023/03/21 00:09:20;;;;;;;12.20;6.10;;;14.70;96.30;;;;;;5032346;28;20433;-70
2023/03/21 00:11:47;;;;;;;9.43;5.32;;;14.70;96.20;;;;;;5032177;28;20079;-70
2023/03/21 00:14:18;;;;;;;12.55;5.30;;;14.60;96.20;;;;;;5032030;28;20049;-70
2023/03/21 00:16:44;;;;;;;7.28;5.35;;;14.60;96.20;;;;;;5032168;28;20388;-71
2023/03/21 00:19:10;;;;;;;9.88;5.55;;;14.70;96.20;;;;;;5031928;28;20379;-71
2023/03/21 00:21:37;;;;;;;11.15;5.70;;;14.60;96.20;;;;;;5032380;28;20439;-69
2023/03/21 00:24:05;;;;;;;11.88;5.32;;;14.60;96.20;;;;;;5032139;28;20364;-69
2023/03/21 00:26:31;;;;;;;10.20;5.50;;;14.60;96.20;;;;;;5032200;28;20140;-69
2023/03/21 00:28:57;;;;;;;10.40;5.57;;;14.60;96.30;;;;;;5031819;28;20025;-72
2023/03/21 00:31:23;;;;;;;10.32;5.47;;;14.60;96.30;;;;;;5031113;28;20040;-70
2023/03/21 00:33:49;;;;;;;11.43;5.85;;;14.50;96.30;;;;;;5032435;28;20059;-70
2023/03/21 00:36:15;;;;;;;11.98;6.32;;;14.50;96.30;;;;;;5031898;28;20088;-69
2023/03/21 00:38:41;;;;;;;11.95;6.25;;;14.60;96.30;;;;;;5031969;28;20021;-71
2023/03/21 00:41:09;;;;;;;11.48;6.28;;;14.50;96.30;;;;;;5031781;28;20075;-73
2023/03/21 00:43:36;;;;;;;11.68;6.43;;;14.50;96.40;;;;;;5031603;28;20087;-72
2023/03/21 00:46:02;;;;;;;11.30;6.65;;;14.50;96.40;;;;;;5033075;28;20142;-71
2023/03/21 00:48:28;;;;;;;9.90;6.30;;;14.50;96.40;;;;;;5035664;28;20447;-68
2023/03/21 00:50:56;;;;;;;10.13;5.78;;;14.50;96.50;;;;;;5035582;28;20087;-68
2023/03/21 00:53:22;;;;;;;10.15;5.35;;;14.50;96.50;;;;;;5035289;28;20018;-72
2023/03/21 00:55:48;;;;;;;9.02;5.30;;;14.50;96.50;;;;;;5035555;28;20038;-70
2023/03/21 00:58:14;;;;;;;8.23;5.65;;;14.50;96.50;;;;;;5034933;28;20079;-72
2023/03/21 01:00:40;;;;;;;10.18;5.60;;;14.50;96.50;;;;;;5034989;28;20120;-69
2023/03/21 01:03:07;;;;;;;11.82;5.88;;;14.50;96.40;;;;;;5033782;28;20112;-73
2023/03/21 01:08:22;;;;;;;10.93;5.88;;;14.50;96.30;;;;;;5035432;28;20091;-72
2023/03/21 01:10:49;;;;;;;10.30;5.88;;;14.40;96.40;;;;;;5033935;28;20033;-71
2023/03/21 01:13:17;;;;;;;10.57;6.07;;;14.40;96.50;;;;;;5034722;28;20021;-70
2023/03/21 01:15:46;;;;;;;11.55;6.03;;;14.40;96.50;;;;;;5035122;28;20040;-68
2023/03/21 01:18:12;;;;;;;12.07;6.07;;;14.40;96.50;;;;;;5034153;28;20037;-67
2023/03/21 01:20:40;;;;;;;10.43;6.05;;;14.40;96.50;;;;;;5054258;28;20032;-70
2023/03/21 01:23:06;;;;;;;11.00;5.93;;;14.30;96.40;;;;;;5054435;28;20452;-71
2023/03/21 01:25:32;;;;;;;10.13;6.07;;;14.40;96.50;;;;;;5054361;28;20020;-70
2023/03/21 01:27:57;;;;;;;10.55;5.32;;;14.30;96.40;;;;;;5054447;28;20428;-70
2023/03/21 01:30:23;;;;;;;11.52;6.13;;;14.40;96.50;;;;;;5054785;28;20032;-71
2023/03/21 01:32:49;;;;;;;8.65;5.57;;;14.40;96.50;;;;;;5054796;28;20064;-71
2023/03/21 01:35:15;;;;;;;11.93;5.82;;;14.40;96.50;;;;;;5054440;28;20020;-71
2023/03/21 01:37:40;;;;;;;11.60;6.13;;;14.40;96.40;;;;;;5054574;28;20087;-71
2023/03/21 01:40:11;;;;;;;12.10;6.25;;;14.40;96.40;;;;;;5054456;28;20025;-70
2023/03/21 01:42:38;;;;;;;14.38;5.43;;;14.30;96.30;;;;;;5054689;28;20048;-69
2023/03/21 01:45:25;;;;;;;9.07;5.65;;;14.40;96.40;;;;;;5054167;28;20028;-69
2023/03/21 01:47:51;;;;;;;11.32;5.28;;;14.40;96.40;;;;;;5054366;28;20033;-72
2023/03/21 01:50:21;;;;;;;12.85;5.30;;;14.40;96.40;;;;;;5053995;28;20493;-72
2023/03/21 01:52:48;;;;;;;10.23;5.75;;;14.40;96.30;;;;;;5054209;28;20020;-71
2023/03/21 01:55:15;;;;;;;9.82;5.35;;;14.40;96.30;;;;;;5054132;28;20454;-70
2023/03/21 01:57:52;;;;;;;11.88;5.57;;;14.30;96.30;;;;;;5053590;28;20033;-69
2023/03/21 02:00:21;;;;;;;8.65;5.68;;;14.30;96.40;;;;;;5053879;28;20025;-70
2023/03/21 02:02:54;;;;;;;12.57;4.93;;;14.30;96.30;;;;;;5054152;28;20025;-68
2023/03/21 02:05:28;;;;;;;12.93;5.55;;;14.30;96.30;;;;;;5053716;28;20491;-69
2023/03/21 02:07:53;;;;;;;9.70;5.00;;;14.30;96.30;;;;;;5054041;28;20474;-68
2023/03/21 02:10:20;;;;;;;13.02;5.32;;;14.20;96.30;;;;;;5053402;28;20040;-73
2023/03/21 02:12:45;;;;;;;8.60;4.85;;;14.20;96.60;;;;;;5053901;28;20024;-72
2023/03/21 02:15:11;;;;;;;8.65;5.32;;;14.20;96.40;;;;;;5053823;28;20382;-73
2023/03/21 02:17:55;;;;;;;10.63;5.55;;;14.20;96.50;;;;;;5054358;28;20029;-69
2023/03/21 02:20:39;;;;;;;8.90;4.70;;;14.20;96.40;;;;;;5053338;28;20021;-69
2023/03/21 02:23:20;;;;;;;11.38;5.57;;;14.20;96.40;;;;;;5053738;28;20040;-70
2023/03/21 02:25:57;;;;;;;12.48;5.18;;;14.20;96.50;;;;;;5053265;28;20110;-72
2023/03/21 02:29:03;;;;;;;9.10;5.10;;;14.20;96.40;;;;;;5053293;28;20541;-70
2023/03/21 02:31:40;;;;;;;10.60;5.35;;;14.20;96.40;;;;;;5037309;28;20072;-72
2023/03/21 02:34:42;;;;;;;9.77;4.75;;;14.20;96.70;;;;;;5053884;28;20078;-69
2023/03/21 02:37:28;;;;;;;9.13;5.07;;;14.20;96.30;;;;;;5045778;28;20041;-71
2023/03/21 02:40:31;;;;;;;11.65;5.30;;;14.20;96.30;;;;;;5053056;28;20267;-73
2023/03/21 02:43:06;;;;;;;9.45;5.22;;;14.20;96.30;;;;;;5053320;28;20021;-72
2023/03/21 02:45:40;;;;;;;12.35;5.38;;;14.10;96.20;;;;;;5053199;28;20104;-70
2023/03/21 02:48:11;;;;;;;9.93;4.53;;;14.10;96.20;;;;;;5053266;28;20032;-71
2023/03/21 02:50:46;;;;;;;10.13;4.95;;;14.10;96.10;;;;;;5051593;28;20467;-70
2023/03/21 02:53:15;;;;;;;8.57;5.15;;;14.00;96.20;;;;;;5053212;28;20020;-68
2023/03/21 02:55:42;;;;;;;11.73;5.78;;;14.00;96.30;;;;;;5052893;28;20469;-70
2023/03/21 02:58:15;;;;;;;9.60;4.65;;;14.00;96.30;;;;;;5053110;28;20037;-69
2023/03/21 03:00:42;;;;;;;8.07;4.40;;;14.00;96.30;;;;;;5051416;28;20124;-69
2023/03/21 03:03:08;;;;;;;13.30;5.35;;;14.00;96.30;;;;;;5053099;28;20025;-68
2023/03/21 03:05:38;;;;;;;8.60;4.68;;;14.00;96.20;;;;;;5051441;28;20394;-71
2023/03/21 03:08:13;;;;;;;10.45;4.90;;;14.10;96.30;;;;;;5052862;28;20021;-69
2023/03/21 03:10:47;;;;;;;9.48;5.18;;;14.10;96.30;;;;;;5052949;28;20098;-70
2023/03/21 03:13:33;;;;;;;11.40;5.05;;;14.10;96.30;;;;;;5052827;28;20053;-71
2023/03/21 03:16:18;;;;;;;11.57;5.22;;;14.10;96.20;;;;;;5052545;28;20025;-70
2023/03/21 03:19:00;;;;;;;8.40;4.47;;;14.10;96.20;;;;;;5052760;28;20029;-72
2023/03/21 03:21:36;;;;;;;10.88;4.75;;;14.20;96.40;;;;;;5052421;28;20025;-72
2023/03/21 03:24:12;;;;;;;9.57;4.78;;;14.10;96.20;;;;;;5052327;28;20114;-70
2023/03/21 03:26:54;;;;;;;11.85;5.05;;;14.20;96.30;;;;;;5052502;28;20543;-69
2023/03/21 03:29:21;;;;;;;8.90;4.32;;;14.20;96.40;;;;;;5052539;28;20110;-69
2023/03/21 03:32:09;;;;;;;13.10;5.55;;;14.20;96.30;;;;;;5052483;28;20124;-70
2023/03/21 03:34:39;;;;;;;13.93;5.38;;;14.10;96.30;;;;;;5052149;28;20027;-72
2023/03/21 03:37:08;;;;;;;15.75;5.68;;;14.10;96.30;;;;;;5051124;28;20082;-70
2023/03/21 03:39:48;;;;;;;13.10;6.53;;;14.20;96.30;;;;;;5052554;28;20079;-70
2023/03/21 03:42:17;;;;;;;9.75;5.03;;;14.20;96.40;;;;;;5052384;28;20029;-68
2023/03/21 03:44:43;;;;;;;11.80;5.22;;;14.20;96.10;;;;;;5052522;28;20021;-70
2023/03/21 03:47:14;;;;;;;10.68;4.85;;;14.20;96.20;;;;;;5052322;28;20039;-71
2023/03/21 03:49:59;;;;;;;13.48;4.90;;;14.30;96.30;;;;;;5052454;28;20021;-71
2023/03/21 03:52:30;;;;;;;13.23;5.38;;;14.20;96.20;;;;;;5052250;28;20023;-70
2023/03/21 03:54:55;;;;;;;6.47;3.38;;;14.20;96.20;;;;;;5052423;28;20470;-71
2023/03/21 03:57:24;;;;;;;10.82;4.22;;;14.30;96.60;;;;;;5052123;28;20037;-71
2023/03/21 03:59:49;;;;;;;12.10;5.18;;;14.30;96.30;;;;;;5052019;28;20033;-68
2023/03/21 04:02:16;;;;;;;9.40;4.85;;;14.20;96.40;;;;;;5052167;28;20086;-69
2023/03/21 04:04:41;;;;;;;9.65;5.03;;;14.20;96.10;;;;;;5052534;28;20021;-68
2023/03/21 04:07:07;;;;;;;13.43;5.13;;;14.20;96.20;;;;;;5051930;28;20108;-72
2023/03/21 04:09:33;;;;;;;10.63;5.22;;;14.20;96.00;;;;;;5052058;28;20025;-71
2023/03/21 04:11:59;;;;;;;10.57;4.15;;;14.20;96.10;;;;;;5052059;28;20036;-68
2023/03/21 04:14:24;;;;;;;11.82;4.85;;;14.20;96.20;;;;;;5052077;28;20013;-68
2023/03/21 04:16:51;;;;;;;12.65;4.82;;;14.20;96.10;;;;;;5052030;28;20130;-69
2023/03/21 04:19:17;;;;;;;11.60;5.00;;;14.20;96.20;;;;;;5052165;28;20148;-69
2023/03/21 04:21:43;;;;;;;9.85;5.00;;;14.20;96.10;;;;;;5053993;28;20013;-68
2023/03/21 04:24:08;;;;;;;9.20;4.38;;;14.20;96.10;;;;;;5056406;28;20032;-68
2023/03/21 04:26:35;;;;;;;10.13;3.65;;;14.20;96.30;;;;;;5055947;28;20045;-70
2023/03/21 04:29:04;;;;;;;8.48;3.90;;;14.20;96.40;;;;;;5055887;28;20078;-71
2023/03/21 04:31:32;;;;;;;9.07;4.25;;;14.30;96.60;;;;;;5057929;28;20350;-71
2023/03/21 04:33:59;;;;;;;9.13;3.72;;;14.30;96.50;;;;;;5057323;28;20100;-70
2023/03/21 04:36:29;;;;;;;8.55;4.30;;;14.30;96.60;;;;;;5056907;28;20095;-67
2023/03/21 04:39:00;;;;;;;11.27;4.63;;;14.30;96.30;;;;;;5057243;28;20029;-70
2023/03/21 04:41:29;;;;;;;9.27;3.80;;;14.30;96.30;;;;;;5057138;28;20033;-69
2023/03/21 04:43:55;;;;;;;10.13;4.18;;;14.40;96.50;;;;;;5057414;28;20367;-71
2023/03/21 04:46:21;;;;;;;7.43;4.28;;;14.30;96.50;;;;;;5057061;28;20540;-69
2023/03/21 04:48:47;;;;;;;7.47;3.60;;;14.30;96.50;;;;;;5056713;28;20032;-72
2023/03/21 04:51:14;;;;;;;10.38;4.45;;;14.40;96.90;;;;;;5055075;28;20021;-69
2023/03/21 04:53:43;;;;;;;7.20;3.67;;;14.40;96.80;;;;;;5055162;28;20377;-69
2023/03/21 04:56:10;;;;;;;5.72;2.80;;;14.40;97.00;;;;;;5055524;28;20017;-72
2023/03/21 04:58:35;;;;;;;11.55;4.20;;;14.40;97.20;;;;;;5055061;28;20033;-69
2023/03/21 05:01:04;;;;;;;8.32;4.18;;;14.40;97.20;;;;;;5055327;28;20489;-69
2023/03/21 05:03:33;;;;;;;11.57;4.50;;;14.40;97.10;;;;;;5055061;28;20029;-68
2023/03/21 05:05:59;;;;;;;9.07;3.80;;;14.40;97.00;;;;;;5054878;28;20013;-68
2023/03/21 05:08:25;;;;;;;7.22;3.58;;;14.40;97.20;;;;;;5054862;28;20029;-72
2023/03/21 05:10:51;;;;;;;10.98;4.55;;;14.40;97.00;;;;;;5055128;28;20059;-72
2023/03/21 05:13:17;;;;;;;7.78;3.70;;;14.30;96.80;;;;;;5054929;28;20513;-68
2023/03/21 05:15:42;;;;;;;8.50;4.70;;;14.30;96.90;;;;;;5055008;28;20021;-72
2023/03/21 05:18:11;;;;;;;11.55;6.38;;;14.20;97.10;;;;;;5054817;28;20106;-70
2023/03/21 05:20:41;;;;;;;11.18;4.60;;;14.20;97.10;;;;;;5054407;28;20017;-72
2023/03/21 05:23:09;;;;;;;11.45;4.50;;;14.20;97.20;;;;;;5054920;28;20104;-68
2023/03/21 05:25:36;;;;;;;10.82;4.93;;;14.30;97.20;;;;;;5053389;28;20430;-70
2023/03/21 05:28:03;;;;;;;9.05;4.32;;;14.20;97.10;;;;;;5043266;28;20159;-70
2023/03/21 05:30:29;;;;;;;10.43;4.53;;;14.30;97.10;;;;;;5040510;28;20030;-69
2023/03/21 05:32:54;;;;;;;7.65;4.68;;;14.20;97.20;;;;;;5054208;28;20090;-72
2023/03/21 05:35:20;;;;;;;9.43;4.03;;;14.30;97.30;;;;;;5045774;28;20020;-68
2023/03/21 05:37:45;;;;;;;6.10;2.95;;;14.30;97.30;;;;;;5034455;28;20056;-72
2023/03/21 05:40:11;;;;;;;9.88;4.47;;;14.30;97.20;;;;;;5033112;28;20367;-71
2023/03/21 05:42:37;;;;;;;7.90;4.13;;;14.20;97.30;;;;;;5034298;28;20061;-73
2023/03/21 05:45:03;;;;;;;7.60;3.67;;;14.20;97.30;;;;;;5046470;28;20021;-68
2023/03/21 05:47:29;;;;;;;8.50;4.07;;;14.20;97.30;;;;;;5046111;28;20028;-71
2023/03/21 05:49:54;;;;;;;10.18;3.28;;;14.20;97.30;;;;;;5034018;28;20025;-73
2023/03/21 05:52:20;;;;;;;7.03;3.47;;;14.30;97.30;;;;;;5036626;28;20104;-73
2023/03/21 05:54:45;;;;;;;11.02;4.80;;;14.30;97.30;;;;;;5058111;28;20017;-73
2023/03/21 05:57:11;;;;;;;11.88;6.40;;;14.30;97.40;;;;;;5059408;28;20479;-70
2023/03/21 05:59:36;;;;;;;14.10;6.07;;;14.20;97.50;;;;;;5049774;28;20032;-70
2023/03/21 06:02:02;;;;;;;13.10;6.32;;;14.10;97.70;;;;;;5051307;28;20033;-67
2023/03/21 06:04:29;;;;;;;12.93;5.45;;;14.10;97.80;;;;;;5051592;28;20100;-69
2023/03/21 06:06:54;;;;;;;9.90;5.22;;;14.10;97.80;;;;;;5052162;28;20444;-70
2023/03/21 06:09:22;;;;;;;12.07;5.75;;;14.10;97.70;;;;;;5053234;28;20485;-71
2023/03/21 06:11:50;;;;;;;11.57;5.47;;;14.10;97.80;;;;;;5053993;28;20410;-71
2023/03/21 06:14:16;;;;;;;11.00;4.65;;;14.00;98.00;;;;;;5053971;28;20488;-69
2023/03/21 06:16:42;;;;;;;7.68;4.80;;;14.00;98.10;;;;;;5053387;28;20103;-71
2023/03/21 06:19:07;;;;;;;10.10;5.32;;;14.00;98.10;;;;;;5031670;28;20033;-67
2023/03/21 06:21:33;;;;;;;12.10;5.40;;;13.90;98.20;;;;;;5026048;28;20068;-68
2023/03/21 06:23:59;;;;;;;10.25;5.13;;;13.90;98.30;;;;;;5027291;28;20082;-67
2023/03/21 06:26:24;;;;;;;8.80;5.18;;;13.90;98.40;;;;;;5039146;28;20025;-70
2023/03/21 06:28:51;;;;;;;11.15;5.55;;;13.90;98.50;;;;;;5038243;28;20029;-70
2023/03/21 06:31:17;;;;;;;10.35;6.35;;;13.90;98.50;;;;;;5042207;28;20493;-73
2023/03/21 06:33:42;;;;;;;12.55;6.90;;;13.90;98.50;;;;;;5039847;28;20033;-68
2023/03/21 06:36:08;;;;;;;15.13;7.35;;;13.90;98.50;;;;;;5042209;28;20017;-69
2023/03/21 06:38:36;;;;;;;16.33;7.25;;;13.90;98.60;;;;;;5040665;28;20063;-69
2023/03/21 06:41:04;;;;;;;17.40;7.40;;;14.00;98.40;;;;;;5035991;28;20067;-70
2023/03/21 06:43:30;;;;;;;11.93;7.00;;;14.00;98.50;;;;;;5038823;28;20033;-70
2023/03/21 06:45:57;;;;;;;17.38;7.57;;;14.00;98.60;;;;;;5032826;28;20028;-70
2023/03/21 06:48:22;;;;;;;9.32;5.82;;;14.00;98.60;;;;;;5050544;28;20024;-71
2023/03/21 06:50:49;;;;;;;10.77;4.40;;;14.00;98.60;;;;;;5040178;28;20036;-71
2023/03/21 06:53:16;;;;;;;11.45;6.32;;;14.10;98.60;;;;;;5034762;28;20022;-71
2023/03/21 06:55:41;;;;;;;13.82;7.25;;;14.10;98.60;;;;;;5041333;28;20032;-71
2023/03/21 06:58:07;;;;;;;10.18;6.15;;;14.10;98.60;;;;;;5038246;28;20279;-71
2023/03/21 07:00:33;;;;;;;11.85;5.28;;;14.10;98.60;;;;;;5037725;28;20040;-71
2023/03/21 07:03:00;;;;;;;14.25;7.40;;;14.20;98.50;;;;;;5034338;28;20031;-74
2023/03/21 07:05:26;;;;;;;12.52;6.82;;;14.10;98.50;;;;;;5042554;28;20051;-71
2023/03/21 07:07:51;;;;;;;13.40;6.25;;;14.10;98.50;;;;;;5041296;28;20112;-71
2023/03/21 07:10:17;;;;;;;12.75;7.43;;;14.20;98.60;;;;;;5046875;28;20434;-71
2023/03/21 07:12:43;;;;;;;16.33;6.57;;;14.10;98.60;;;;;;5050993;28;20023;-70
2023/03/21 07:15:09;;;;;;;10.02;6.38;;;14.20;98.60;;;;;;5047330;28;20052;-71
2023/03/21 07:17:35;;;;;;;13.02;6.40;;;14.20;98.60;;;;;;5031971;28;20426;-71
2023/03/21 07:20:03;;;;;;;11.40;5.35;;;14.20;98.60;;;;;;5031422;28;20010;-71
2023/03/21 07:22:28;;;;;;;16.63;7.10;;;14.20;98.60;;;;;;5032307;28;20029;-71
2023/03/21 07:24:54;;;;;;;11.35;4.30;;;14.20;98.50;;;;;;5031653;28;20025;-71
2023/03/21 07:27:20;;;;;;;10.50;4.32;;;14.30;98.60;;;;;;5031131;28;20037;-71
2023/03/21 07:29:46;;;;;;;13.90;6.30;;;14.30;98.50;;;;;;5032629;28;20025;-71
2023/03/21 07:32:12;;;;;;;12.77;5.70;;;14.30;98.40;;;;;;5032474;28;20025;-71
2023/03/21 07:34:37;;;;;;;10.57;6.05;;;14.30;98.40;;;;;;5032459;28;20402;-71
2023/03/21 07:37:04;;;;;;;12.50;5.10;;;14.30;98.40;;;;;;5032243;28;20041;-71
2023/03/21 07:39:31;;;;;;;11.98;4.97;;;14.30;98.50;;;;;;5032727;28;20025;-71
2023/03/21 07:41:57;;;;;;;9.02;4.22;;;14.30;98.40;;;;;;5032650;28;20021;-71
2023/03/21 07:44:23;;;;;;;9.93;4.82;;;14.30;98.40;;;;;;5032368;28;20013;-71
2023/03/21 07:46:49;;;;;;;11.10;3.92;;;14.40;98.50;;;;;;5032001;28;20020;-71
2023/03/21 07:49:15;;;;;;;10.07;3.72;;;14.40;98.50;;;;;;5032329;28;20026;-71
2023/03/21 07:51:40;;;;;;;11.65;5.15;;;14.40;98.40;;;;;;5032618;28;20509;-71
2023/03/21 07:54:06;;;;;;;7.00;3.03;;;14.40;98.30;;;;;;5032221;28;20026;-71
2023/03/21 07:56:32;;;;;;;11.98;4.88;;;14.40;98.40;;;;;;5036507;28;20025;-71
2023/03/21 07:58:58;;;;;;;8.02;4.22;;;14.40;98.20;;;;;;5035921;28;20386;-71
2023/03/21 08:01:24;;;;;;;9.82;4.78;;;14.40;98.60;;;;;;5035385;28;20036;-71
2023/03/21 08:03:52;;;;;;;10.43;4.30;;;14.40;98.20;;;;;;5036137;28;20180;-71
2023/03/21 08:06:19;;;;;;;8.85;4.82;;;14.40;98.20;;;;;;5039707;28;20086;-69
2023/03/21 08:08:45;;;;;;;12.75;4.00;;;14.40;98.20;;;;;;5049341;28;20032;-71
2023/03/21 08:11:11;;;;;;;10.13;3.75;;;14.40;98.20;;;;;;5043192;28;20037;-70
2023/03/21 08:13:37;;;;;;;11.93;3.55;;;14.50;98.20;;;;;;5035327;28;20445;-70
2023/03/21 08:16:03;;;;;;;10.38;3.85;;;14.50;98.20;;;;;;5043613;28;20507;-70
2023/03/21 08:18:29;;;;;;;11.90;4.57;;;14.50;98.20;;;;;;5041762;28;20486;-71
2023/03/21 08:20:56;;;;;;;13.32;3.97;;;14.50;98.10;;;;;;5055857;28;20021;-71
2023/03/21 08:23:23;;;;;;;9.18;4.15;;;14.50;98.10;;;;;;5056025;28;20017;-70
2023/03/21 08:25:52;;;;;;;9.88;4.15;;;14.50;98.00;;;;;;5057624;28;20108;-71
2023/03/21 08:28:19;;;;;;;6.30;3.08;;;14.50;98.10;;;;;;5050388;28;20023;-71
2023/03/21 08:30:44;;;;;;;7.68;4.35;;;14.50;98.00;;;;;;5041541;28;20029;-71
2023/03/21 08:33:12;;;;;;;10.00;4.50;;;14.50;98.00;;;;;;5036766;28;20132;-70
2023/03/21 08:35:37;;;;;;;8.73;4.07;;;14.50;98.00;;;;;;5059317;28;20028;-71
2023/03/21 08:38:03;;;;;;;7.80;3.33;;;14.50;98.00;;;;;;5054502;28;20370;-70
2023/03/21 08:40:29;;;;;;;9.35;3.88;;;14.50;98.00;;;;;;5050648;28;20029;-71
2023/03/21 08:42:54;;;;;;;8.95;3.67;;;14.50;97.90;;;;;;5042069;28;20022;-70
2023/03/21 08:45:21;;;;;;;8.98;3.33;;;14.50;97.90;;;;;;5052091;28;20060;-70
2023/03/21 08:47:47;;;;;;;9.82;4.10;;;14.60;97.90;;;;;;5037408;28;20029;-70
2023/03/21 08:50:16;;;;;;;6.10;2.40;;;14.60;97.80;;;;;;5046800;28;20021;-71
2023/03/21 08:52:42;;;;;;;6.03;2.75;;;14.60;97.80;;;;;;5042226;28;20036;-70
2023/03/21 08:55:09;;;;;;;8.25;2.90;;;14.60;97.70;;;;;;5051679;28;20017;-70
2023/03/21 08:57:35;;;;;;;6.93;3.55;;;14.70;97.70;;;;;;5035299;28;20056;-70
2023/03/21 09:00:06;;;;;;;9.07;3.40;;;14.70;97.70;;;;;;5035247;28;20478;-70
2023/03/21 09:02:31;;;;;;;7.47;3.00;;;14.70;97.70;;;;;;5039620;28;20017;-70
2023/03/21 09:04:57;;;;;;;6.90;2.90;;;14.70;97.60;;;;;;5050480;28;20032;-70
2023/03/21 09:07:25;;;;;;;11.55;2.60;;;14.80;97.60;;;;;;5052061;28;20029;-70
2023/03/21 09:09:52;;;;;;;7.70;2.42;;;14.80;97.50;;;;;;5053995;28;20029;-70
2023/03/21 09:12:18;;;;;;;5.05;2.40;;;14.80;97.50;;;;;;5054488;28;20035;-70
2023/03/21 09:14:43;;;;;;;8.02;2.90;;;14.90;97.50;;;;;;5035458;28;20111;-70
2023/03/21 09:17:09;;;;;;;7.15;2.47;;;14.90;97.50;;;;;;5034947;28;20065;-70
2023/03/21 09:19:34;;;;;;;4.43;1.92;;;14.90;97.50;;;;;;5040165;28;20045;-70
2023/03/21 09:22:03;;;;;;;5.97;2.67;;;14.90;97.40;;;;;;5034553;28;20026;-70
2023/03/21 09:24:29;;;;;;;4.32;2.58;;;14.90;97.40;;;;;;5040456;28;20028;-71
2023/03/21 09:26:56;;;;;;;7.03;2.20;;;14.90;97.40;;;;;;5037653;28;20033;-69
2023/03/21 09:29:22;;;;;;;5.88;2.40;;;14.90;97.30;;;;;;5036279;28;20030;-70
2023/03/21 09:31:48;;;;;;;7.72;2.05;;;14.90;96.30;;;;;;5044692;28;20037;-70
2023/03/21 09:34:14;;;;;;;7.97;2.45;;;15.00;97.10;;;;;;5045724;28;20040;-69
2023/03/21 09:36:42;;;;;;;10.73;2.63;;;15.10;97.20;;;;;;5036782;28;20029;-69
2023/03/21 09:39:09;;;;;;;6.75;2.33;;;15.10;97.20;;;;;;5034462;28;20494;-69
2023/03/21 09:42:00;;;;;;;6.28;2.20;;;15.00;97.10;;;;;;5042391;28;20167;-69
2023/03/21 09:45:00;;;;;;;8.48;2.30;;;15.10;97.00;;;;;;5034495;28;20028;-69
2023/03/21 09:47:31;;;;;;;11.07;2.25;;;15.10;97.00;;;;;;5034486;28;20029;-69
2023/03/21 09:50:06;;;;;;;5.07;2.80;;;15.10;97.00;;;;;;5034606;28;20033;-69
2023/03/21 09:52:50;;;;;;;5.50;2.00;;;15.10;96.90;;;;;;5036651;28;20018;-69
2023/03/21 09:55:33;;;;;;;6.88;2.28;;;15.10;96.90;;;;;;5041298;28;20523;-69
2023/03/21 09:58:27;;;;;;;5.88;1.92;;;15.10;96.90;;;;;;5048786;28;20393;-69
2023/03/21 10:01:07;;;;;;;6.63;2.20;;;15.20;96.90;;;;;;5037816;28;20116;-69
2023/03/21 10:03:34;;;;;;;5.53;2.20;;;15.10;96.90;;;;;;5050215;28;20485;-69
2023/03/21 10:06:07;;;;;;;7.38;2.50;;;15.10;96.80;;;;;;5042991;28;20226;-69
2023/03/21 10:08:40;;;;;;;6.10;2.80;;;15.10;96.80;;;;;;5053590;28;20021;-69
2023/03/21 10:11:21;;;;;;;7.65;1.98;;;15.10;96.80;;;;;;5053631;28;20025;-69
2023/03/21 10:14:06;;;;;;;5.55;2.10;;;15.10;96.80;;;;;;5053962;28;20108;-69
2023/03/21 10:16:39;;;;;;;6.10;2.78;;;15.20;96.80;;;;;;5047359;28;20037;-69
2023/03/21 10:19:11;;;;;;;3.42;1.67;;;15.20;96.80;;;;;;5049982;28;20029;-69
2023/03/21 10:21:42;;;;;;;5.13;1.95;;;15.20;96.70;;;;;;5048636;28;20068;-69
2023/03/21 10:24:16;;;;;;;3.75;1.85;;;15.20;96.70;;;;;;5054302;28;20056;-69
2023/03/21 10:26:42;;;;;;;5.82;1.98;;;15.20;96.60;;;;;;5054756;28;20090;-69
2023/03/21 10:29:12;;;;;;;8.05;2.15;;;15.20;96.60;;;;;;5052394;28;20021;-69
2023/03/21 10:31:40;;;;;;;5.95;2.10;;;15.30;96.60;;;;;;5036977;28;20061;-69
2023/03/21 10:34:14;;;;;;;4.75;1.90;;;15.20;96.60;;;;;;5033964;28;20013;-68
2023/03/21 10:36:40;;;;;;;6.65;1.85;;;15.30;96.60;;;;;;5054515;28;20036;-68
2023/03/21 10:39:14;;;;;;;9.65;2.63;;;15.30;96.60;;;;;;5073129;28;20151;-68
2023/03/21 10:41:40;;;;;;;5.35;2.25;;;15.30;96.50;;;;;;5043551;28;20070;-68
2023/03/21 10:44:15;;;;;;;4.55;1.85;;;15.30;96.50;;;;;;5033329;28;20466;-68
2023/03/21 10:46:53;;;;;;;5.93;2.17;;;15.30;96.50;;;;;;5039388;28;20367;-68
2023/03/21 10:49:20;;;;;;;7.10;2.17;;;15.30;96.50;;;;;;5052515;28;20538;-68
2023/03/21 10:51:50;;;;;;;4.07;1.92;;;15.30;96.40;;;;;;5047799;28;20026;-68
2023/03/21 10:54:20;;;;;;;4.20;1.60;;;15.30;96.40;;;;;;5032916;28;20022;-68
2023/03/21 10:57:11;;;;;;;3.38;1.80;;;15.30;96.40;;;;;;5043825;28;20025;-69
2023/03/21 10:59:44;;;;;;;3.63;1.80;;;15.40;96.40;;;;;;5032961;28;20041;-69
2023/03/21 11:02:24;;;;;;;3.95;1.38;;;15.40;96.40;;;;;;5040102;28;20021;-69
2023/03/21 11:04:52;;;;;;;3.33;1.52;;;15.50;93.70;;;;;;5049485;28;20028;-69
2023/03/21 11:07:18;;;;;;;4.50;1.80;;;15.60;92.80;;;;;;5054665;28;20028;-69
2023/03/21 11:09:52;;;;;;;3.20;1.40;;;15.70;93.50;;;;;;5050669;28;20394;-69
2023/03/21 11:12:37;;;;;;;4.80;1.90;;;15.70;92.70;;;;;;5052109;28;20028;-69
2023/03/21 11:15:29;;;;;;;3.67;1.50;;;15.70;92.20;;;;;;5048489;28;20018;-69
2023/03/21 11:17:59;;;;;;;5.40;1.67;;;15.80;91.00;;;;;;5051482;28;20041;-69
2023/03/21 11:20:29;;;;;;;3.70;1.35;;;15.80;92.30;;;;;;5037577;28;20467;-69
2023/03/21 11:22:55;;;;;;;3.17;1.45;;;15.80;92.30;;;;;;5031871;28;20021;-70
2023/03/21 11:25:39;;;;;;;3.15;1.42;;;15.80;92.10;;;;;;5044652;28;20435;-70
2023/03/21 11:28:13;;;;;;;3.08;1.60;;;15.90;90.40;;;;;;5050958;28;20081;-69
2023/03/21 11:30:49;;;;;;;4.80;1.55;;;15.90;92.10;;;;;;5052324;28;20454;-70
2023/03/21 11:33:17;;;;;;;4.47;1.63;;;15.90;92.20;;;;;;5052618;28;20025;-69
2023/03/21 11:35:56;;;;;;;4.57;1.60;;;15.90;92.30;;;;;;5051923;28;20024;-70
2023/03/21 11:38:29;;;;;;;6.13;2.25;;;16.00;92.80;;;;;;5051893;28;20371;-69
2023/03/21 11:40:58;;;;;;;5.28;1.90;;;16.10;93.20;;;;;;5045439;28;20040;-69
2023/03/21 11:43:33;;;;;;;6.03;2.05;;;16.10;92.50;;;;;;5042488;28;20479;-70
2023/03/21 11:46:04;;;;;;;3.35;1.75;;;16.10;92.90;;;;;;5047016;28;20508;-70
2023/03/21 11:48:40;;;;;;;6.78;2.10;;;16.10;92.90;;;;;;5040469;28;20033;-72
2023/03/21 11:51:13;;;;;;;14.18;3.10;;;16.10;92.20;;;;;;5031310;28;20032;-71
2023/03/21 11:53:53;;;;;;;5.43;2.35;;;16.20;93.50;;;;;;5030607;28;20021;-71
2023/03/21 11:56:37;;;;;;;7.07;2.10;;;16.10;93.50;;;;;;5029769;28;20040;-71
2023/03/21 11:59:30;;;;;;;6.82;2.53;;;16.10;93.70;;;;;;5029803;28;20034;-72
2023/03/21 12:02:21;;;;;;;8.25;2.33;;;16.00;93.80;;;;;;5032215;28;20030;-72
2023/03/21 12:04:55;;;;;;;5.13;2.33;;;16.00;93.90;;;;;;5031221;28;20032;-70
2023/03/21 12:07:21;;;;;;;7.80;2.45;;;16.00;93.90;;;;;;5032973;28;20028;-72
2023/03/21 12:09:55;;;;;;;6.70;1.90;;;16.00;93.90;;;;;;5041236;28;20039;-71
2023/03/21 12:12:40;;;;;;;9.55;2.70;;;16.00;93.90;;;;;;5050716;28;20029;-71
2023/03/21 12:15:25;;;;;;;5.43;2.30;;;16.10;93.80;;;;;;5052003;28;20063;-71
2023/03/21 12:18:25;;;;;;;7.50;2.30;;;16.10;93.70;;;;;;5051783;28;20041;-71
2023/03/21 12:20:57;;;;;;;7.50;2.58;;;16.10;93.60;;;;;;5051954;28;20029;-71
2023/03/21 12:23:47;;;;;;;8.68;2.10;;;16.10;93.60;;;;;;5050691;28;20477;-71
2023/03/21 12:26:25;;;;;;;5.05;1.85;;;16.10;93.50;;;;;;5049880;28;20120;-70
2023/03/21 12:29:03;;;;;;;4.70;2.30;;;16.10;93.60;;;;;;5039823;28;20057;-71
2023/03/21 12:31:46;;;;;;;6.32;2.63;;;16.10;93.70;;;;;;5035060;28;20033;-71
2023/03/21 12:34:41;;;;;;;8.95;2.90;;;16.10;93.80;;;;;;5046523;28;20042;-72
2023/03/21 12:37:36;;;;;;;11.55;3.58;;;16.10;94.10;;;;;;4999680;28;20046;-72
2023/03/21 12:40:19;;;;;;;6.32;3.22;;;16.10;94.40;;;;;;5041336;28;20038;-72
2023/03/21 12:43:06;;;;;;;9.63;3.00;;;16.10;95.00;;;;;;5037001;28;20092;-72
2023/03/21 12:45:37;;;;;;;12.73;3.45;;;16.00;95.20;;;;;;5051954;28;20034;-71
2023/03/21 12:48:23;;;;;;;6.72;2.90;;;16.00;95.80;;;;;;5037310;28;20013;-71
2023/03/21 12:50:52;;;;;;;6.65;3.55;;;16.10;96.40;;;;;;5015910;28;20120;-72
2023/03/21 12:53:40;;;;;;;8.30;3.97;;;16.10;96.50;;;;;;5038749;28;20021;-72
2023/03/21 12:56:14;;;;;;;8.93;4.13;;;16.10;96.90;;;;;;5037089;28;20128;-72
2023/03/21 12:58:55;;;;;;;7.40;3.83;;;16.10;96.80;;;;;;5047465;28;20115;-71
2023/03/21 13:01:21;;;;;;;8.75;4.20;;;16.10;96.60;;;;;;5051831;28;20040;-72
2023/03/21 13:04:02;;;;;;;7.03;3.92;;;16.10;96.50;;;;;;5055334;28;20428;-72